MHU760 RJOA-VHHH
Flight info
| Callsign | MHU760 |
|---|---|
| Flight time | 3h 15m |
| Altitude | 38000 |
| Route | MARCO Y45 HKC A1 ELATO V522 ABBEY |
| Aircraft | B789/H-SDE1E2E3FGHIJ2J3J4J5M1RWXY/LB1D1 |
Departure
| Time | 2026-04-26 14:34 |
|---|---|
| Airport | Hiroshima Airport (RJOA) |
Arrival
| Time | 2026-04-26 17:50 |
|---|---|
| Airport | Hong Kong International Airport (VHHH) |
| Time | Latitude | Longitude | Altitude | Speed | Heading |
|---|---|---|---|---|---|
| 2026-04-26 14:05 | 34.43900 | 132.92157 | 1083 ft | 0 kts | 0° |
| 2026-04-26 14:11 | 34.43899 | 132.92157 | 1083 ft | 0 kts | 0° |
| 2026-04-26 14:20 | 34.43889 | 132.92157 | 1082 ft | 3 kts | 360° |
| 2026-04-26 14:21 | 34.43869 | 132.92157 | 1083 ft | 3 kts | 359° |
| 2026-04-26 14:21 | 34.43849 | 132.92158 | 1082 ft | 3 kts | 358° |
| 2026-04-26 14:21 | 34.43828 | 132.92159 | 1083 ft | 3 kts | 355° |
| 2026-04-26 14:21 | 34.43808 | 132.92161 | 1083 ft | 3 kts | 350° |
| 2026-04-26 14:22 | 34.43789 | 132.92167 | 1082 ft | 3 kts | 338° |
| 2026-04-26 14:22 | 34.43773 | 132.92177 | 1081 ft | 3 kts | 315° |
| 2026-04-26 14:22 | 34.43765 | 132.92188 | 1082 ft | 2 kts | 278° |
| 2026-04-26 14:22 | 34.43765 | 132.92193 | 1082 ft | 0 kts | 270° |
| 2026-04-26 14:29 | 34.43765 | 132.92179 | 1084 ft | 4 kts | 270° |
| 2026-04-26 14:29 | 34.43766 | 132.92137 | 1084 ft | 6 kts | 271° |
| 2026-04-26 14:29 | 34.43766 | 132.92084 | 1083 ft | 7 kts | 270° |
| 2026-04-26 14:29 | 34.43762 | 132.92015 | 1083 ft | 9 kts | 262° |
| 2026-04-26 14:30 | 34.43763 | 132.91930 | 1083 ft | 11 kts | 276° |
| 2026-04-26 14:30 | 34.43767 | 132.91831 | 1084 ft | 13 kts | 270° |
| 2026-04-26 14:30 | 34.43767 | 132.91719 | 1084 ft | 14 kts | 270° |
| 2026-04-26 14:30 | 34.43769 | 132.91594 | 1084 ft | 15 kts | 273° |
| 2026-04-26 14:31 | 34.43768 | 132.91466 | 1084 ft | 16 kts | 270° |
| 2026-04-26 14:31 | 34.43768 | 132.91329 | 1085 ft | 17 kts | 269° |
| 2026-04-26 14:31 | 34.43766 | 132.91184 | 1085 ft | 17 kts | 271° |
| 2026-04-26 14:31 | 34.43767 | 132.91034 | 1085 ft | 18 kts | 270° |
| 2026-04-26 14:32 | 34.43767 | 132.90879 | 1086 ft | 19 kts | 272° |
| 2026-04-26 14:32 | 34.43765 | 132.90716 | 1086 ft | 19 kts | 269° |
| 2026-04-26 14:32 | 34.43767 | 132.90553 | 1086 ft | 20 kts | 269° |
| 2026-04-26 14:32 | 34.43760 | 132.90385 | 1086 ft | 19 kts | 253° |
| 2026-04-26 14:33 | 34.43688 | 132.90326 | 1086 ft | 11 kts | 178° |
| 2026-04-26 14:33 | 34.43627 | 132.90364 | 1087 ft | 10 kts | 128° |
| 2026-04-26 14:33 | 34.43606 | 132.90435 | 1087 ft | 9 kts | 99° |
| 2026-04-26 14:33 | 34.43603 | 132.90613 | 1086 ft | 43 kts | 90° |
| 2026-04-26 14:34 | 34.43604 | 132.91285 | 1085 ft | 116 kts | 90° |
| 2026-04-26 14:34 | 34.43605 | 132.92530 | 1099 ft | 178 kts | 89° |
| 2026-04-26 14:34 | 34.43585 | 132.94097 | 1848 ft | 188 kts | 88° |
| 2026-04-26 14:34 | 34.43559 | 132.95663 | 2908 ft | 182 kts | 87° |
| 2026-04-26 14:35 | 34.43585 | 132.97282 | 3193 ft | 206 kts | 85° |
| 2026-04-26 14:35 | 34.43555 | 132.99133 | 3291 ft | 230 kts | 96° |
| 2026-04-26 14:35 | 34.42927 | 133.00972 | 3569 ft | 250 kts | 119° |
| 2026-04-26 14:35 | 34.41536 | 133.02355 | 3921 ft | 267 kts | 149° |
| 2026-04-26 14:36 | 34.39713 | 133.02858 | 4545 ft | 279 kts | 181° |
| 2026-04-26 14:36 | 34.37858 | 133.02125 | 5091 ft | 287 kts | 213° |
| 2026-04-26 14:36 | 34.36547 | 133.00329 | 5692 ft | 288 kts | 246° |
| 2026-04-26 14:36 | 34.35889 | 132.98042 | 6206 ft | 289 kts | 252° |
| 2026-04-26 14:37 | 34.35299 | 132.95693 | 6753 ft | 289 kts | 253° |
| 2026-04-26 14:37 | 34.34725 | 132.93386 | 7230 ft | 290 kts | 253° |
| 2026-04-26 14:37 | 34.34121 | 132.91059 | 7743 ft | 290 kts | 252° |
| 2026-04-26 14:37 | 34.33511 | 132.88725 | 8170 ft | 292 kts | 252° |
| 2026-04-26 14:38 | 34.32901 | 132.86370 | 8675 ft | 294 kts | 253° |
| 2026-04-26 14:38 | 34.32293 | 132.84015 | 9804 ft | 290 kts | 253° |
| 2026-04-26 14:38 | 34.31683 | 132.81655 | 10586 ft | 304 kts | 252° |
| 2026-04-26 14:38 | 34.31464 | 132.80815 | 10714 ft | 313 kts | 252° |
| 2026-04-26 14:39 | 34.30302 | 132.76346 | 11242 ft | 358 kts | 252° |
| 2026-04-26 14:39 | 34.29541 | 132.73413 | 12040 ft | 365 kts | 252° |
| 2026-04-26 14:39 | 34.28777 | 132.70472 | 13075 ft | 368 kts | 251° |
| 2026-04-26 14:39 | 34.28001 | 132.67497 | 13933 ft | 373 kts | 251° |
| 2026-04-26 14:40 | 34.27215 | 132.64490 | 14733 ft | 377 kts | 251° |
| 2026-04-26 14:40 | 34.26431 | 132.61486 | 15542 ft | 382 kts | 251° |
| 2026-04-26 14:40 | 34.25625 | 132.58404 | 16341 ft | 387 kts | 251° |
| 2026-04-26 14:40 | 34.24810 | 132.55290 | 17159 ft | 390 kts | 251° |
| 2026-04-26 14:41 | 34.23986 | 132.52144 | 17932 ft | 395 kts | 251° |
| 2026-04-26 14:41 | 34.23150 | 132.48958 | 18626 ft | 399 kts | 251° |
| 2026-04-26 14:41 | 34.22203 | 132.45793 | 19254 ft | 402 kts | 242° |
| 2026-04-26 14:41 | 34.20830 | 132.42833 | 19901 ft | 405 kts | 240° |
| 2026-04-26 14:42 | 34.19377 | 132.39891 | 20585 ft | 409 kts | 232° |
| 2026-04-26 14:42 | 34.17353 | 132.37472 | 21249 ft | 413 kts | 216° |
| 2026-04-26 14:42 | 34.14897 | 132.35637 | 21777 ft | 418 kts | 210° |
| 2026-04-26 14:42 | 34.12327 | 132.33942 | 22327 ft | 422 kts | 210° |
| 2026-04-26 14:43 | 34.09782 | 132.32144 | 22824 ft | 427 kts | 213° |
| 2026-04-26 14:43 | 34.07278 | 132.30173 | 23387 ft | 430 kts | 214° |
| 2026-04-26 14:43 | 34.04740 | 132.28211 | 23892 ft | 434 kts | 212° |
| 2026-04-26 14:43 | 34.02145 | 132.26317 | 24446 ft | 436 kts | 212° |
| 2026-04-26 14:44 | 33.99545 | 132.24419 | 24959 ft | 439 kts | 212° |
| 2026-04-26 14:44 | 33.96943 | 132.22463 | 25409 ft | 441 kts | 212° |
| 2026-04-26 14:44 | 33.94460 | 132.20591 | 25802 ft | 443 kts | 212° |
| 2026-04-26 14:44 | 33.91701 | 132.18543 | 26255 ft | 446 kts | 212° |
| 2026-04-26 14:45 | 33.89047 | 132.16582 | 26679 ft | 448 kts | 212° |
| 2026-04-26 14:45 | 33.87355 | 132.15326 | 26930 ft | 450 kts | 212° |
| 2026-04-26 14:45 | 33.83751 | 132.12641 | 27465 ft | 453 kts | 212° |
| 2026-04-26 14:45 | 33.81033 | 132.10624 | 27856 ft | 455 kts | 212° |
| 2026-04-26 14:46 | 33.78364 | 132.08649 | 28206 ft | 458 kts | 212° |
| 2026-04-26 14:46 | 33.75637 | 132.06629 | 28537 ft | 461 kts | 212° |
| 2026-04-26 14:46 | 33.72897 | 132.04599 | 28879 ft | 464 kts | 212° |
| 2026-04-26 14:46 | 33.70139 | 132.02558 | 29192 ft | 467 kts | 212° |
| 2026-04-26 14:47 | 33.67361 | 132.00506 | 29492 ft | 470 kts | 213° |
| 2026-04-26 14:47 | 33.64567 | 131.98443 | 29799 ft | 472 kts | 213° |
| 2026-04-26 14:47 | 33.61759 | 131.96370 | 30102 ft | 475 kts | 213° |
| 2026-04-26 14:47 | 33.58936 | 131.94288 | 30368 ft | 476 kts | 213° |
| 2026-04-26 14:48 | 33.56111 | 131.92207 | 30635 ft | 478 kts | 213° |
| 2026-04-26 14:48 | 33.53264 | 131.90111 | 30886 ft | 479 kts | 213° |
| 2026-04-26 14:48 | 33.50417 | 131.88016 | 31199 ft | 481 kts | 214° |
| 2026-04-26 14:48 | 33.47559 | 131.85915 | 31489 ft | 483 kts | 214° |
| 2026-04-26 14:49 | 33.44689 | 131.83807 | 31763 ft | 485 kts | 214° |
| 2026-04-26 14:49 | 33.41807 | 131.81692 | 32070 ft | 485 kts | 214° |
| 2026-04-26 14:49 | 33.38934 | 131.79586 | 32441 ft | 484 kts | 214° |
| 2026-04-26 14:49 | 33.36100 | 131.77509 | 32769 ft | 483 kts | 214° |
| 2026-04-26 14:50 | 33.33201 | 131.75386 | 33105 ft | 482 kts | 214° |
| 2026-04-26 14:50 | 33.30384 | 131.73325 | 33447 ft | 481 kts | 214° |
| 2026-04-26 14:50 | 33.27530 | 131.71238 | 33788 ft | 479 kts | 214° |
| 2026-04-26 14:50 | 33.24691 | 131.69165 | 34121 ft | 478 kts | 214° |
| 2026-04-26 14:51 | 33.21857 | 131.67096 | 34434 ft | 476 kts | 214° |
| 2026-04-26 14:51 | 33.19949 | 131.65704 | 34665 ft | 474 kts | 214° |
| 2026-04-26 14:51 | 33.17174 | 131.63681 | 35007 ft | 472 kts | 214° |
| 2026-04-26 14:51 | 33.14406 | 131.61664 | 35355 ft | 470 kts | 215° |
| 2026-04-26 14:52 | 33.11550 | 131.59585 | 35710 ft | 467 kts | 215° |
| 2026-04-26 14:52 | 33.08817 | 131.57597 | 36046 ft | 465 kts | 215° |
| 2026-04-26 14:52 | 33.06063 | 131.55596 | 36401 ft | 463 kts | 215° |
| 2026-04-26 14:52 | 33.03309 | 131.53595 | 36752 ft | 461 kts | 215° |
| 2026-04-26 14:53 | 33.00579 | 131.51614 | 37079 ft | 459 kts | 215° |
| 2026-04-26 14:53 | 32.97855 | 131.49639 | 37429 ft | 456 kts | 215° |
| 2026-04-26 14:53 | 32.95147 | 131.47676 | 37710 ft | 455 kts | 215° |
| 2026-04-26 14:53 | 32.92436 | 131.45712 | 37880 ft | 456 kts | 215° |
| 2026-04-26 14:54 | 32.89783 | 131.43791 | 37915 ft | 459 kts | 215° |
| 2026-04-26 14:54 | 32.84246 | 131.39791 | 37922 ft | 458 kts | 214° |
| 2026-04-26 14:55 | 32.78813 | 131.35868 | 37933 ft | 457 kts | 215° |
| 2026-04-26 14:55 | 32.73401 | 131.31968 | 37932 ft | 458 kts | 215° |
| 2026-04-26 14:56 | 32.67960 | 131.28051 | 37935 ft | 457 kts | 215° |
| 2026-04-26 14:56 | 32.62585 | 131.24188 | 37925 ft | 457 kts | 215° |
| 2026-04-26 14:57 | 32.57057 | 131.20221 | 37926 ft | 457 kts | 215° |
| 2026-04-26 14:57 | 32.51605 | 131.16313 | 37909 ft | 456 kts | 215° |
| 2026-04-26 14:58 | 32.46207 | 131.12451 | 37923 ft | 457 kts | 215° |
| 2026-04-26 14:58 | 32.40764 | 131.08562 | 37918 ft | 456 kts | 215° |
| 2026-04-26 14:59 | 32.35327 | 131.04681 | 37916 ft | 457 kts | 215° |
| 2026-04-26 14:59 | 32.29878 | 131.00799 | 37912 ft | 457 kts | 215° |
| 2026-04-26 15:00 | 32.24432 | 130.96924 | 37912 ft | 457 kts | 215° |
| 2026-04-26 15:00 | 32.18981 | 130.93051 | 37912 ft | 456 kts | 215° |
| 2026-04-26 15:01 | 32.13572 | 130.89213 | 37911 ft | 455 kts | 215° |
| 2026-04-26 15:01 | 32.08141 | 130.85365 | 37908 ft | 455 kts | 215° |
| 2026-04-26 15:02 | 32.02772 | 130.81567 | 37915 ft | 455 kts | 215° |
| 2026-04-26 15:02 | 31.97316 | 130.77711 | 37914 ft | 455 kts | 215° |
| 2026-04-26 15:03 | 31.91892 | 130.73885 | 37912 ft | 453 kts | 215° |
| 2026-04-26 15:03 | 31.86481 | 130.70070 | 37913 ft | 453 kts | 215° |
| 2026-04-26 15:04 | 31.81054 | 130.66253 | 37923 ft | 454 kts | 216° |
| 2026-04-26 15:04 | 31.75630 | 130.62441 | 37917 ft | 454 kts | 216° |
| 2026-04-26 15:05 | 31.70433 | 130.58416 | 37931 ft | 447 kts | 225° |
| 2026-04-26 15:05 | 31.66382 | 130.53203 | 37921 ft | 444 kts | 235° |
| 2026-04-26 15:06 | 31.62530 | 130.47389 | 37930 ft | 444 kts | 235° |
| 2026-04-26 15:06 | 31.58757 | 130.41657 | 37930 ft | 443 kts | 235° |
| 2026-04-26 15:07 | 31.53144 | 130.33177 | 37927 ft | 444 kts | 235° |
| 2026-04-26 15:07 | 31.49288 | 130.27357 | 37928 ft | 445 kts | 235° |
| 2026-04-26 15:08 | 31.45508 | 130.21662 | 37931 ft | 445 kts | 235° |
| 2026-04-26 15:08 | 31.41684 | 130.15907 | 37923 ft | 445 kts | 235° |
| 2026-04-26 15:09 | 31.37897 | 130.10217 | 37920 ft | 445 kts | 235° |
| 2026-04-26 15:09 | 31.34117 | 130.04459 | 37920 ft | 446 kts | 235° |
| 2026-04-26 15:10 | 31.30968 | 129.99681 | 37922 ft | 446 kts | 235° |
| 2026-04-26 15:10 | 31.26524 | 129.92971 | 37919 ft | 446 kts | 235° |
| 2026-04-26 15:11 | 31.22697 | 129.87258 | 37922 ft | 446 kts | 235° |
| 2026-04-26 15:11 | 31.18879 | 129.81537 | 37924 ft | 446 kts | 235° |
| 2026-04-26 15:12 | 31.15048 | 129.75818 | 37926 ft | 447 kts | 235° |
| 2026-04-26 15:12 | 31.11238 | 129.70133 | 37927 ft | 448 kts | 235° |
| 2026-04-26 15:13 | 31.07367 | 129.64369 | 37929 ft | 449 kts | 235° |
| 2026-04-26 15:13 | 31.03537 | 129.58673 | 37925 ft | 448 kts | 235° |
| 2026-04-26 15:14 | 30.99661 | 129.52917 | 37930 ft | 448 kts | 235° |
| 2026-04-26 15:14 | 30.95807 | 129.47203 | 37931 ft | 449 kts | 235° |
| 2026-04-26 15:15 | 30.91967 | 129.41516 | 37932 ft | 449 kts | 235° |
| 2026-04-26 15:15 | 30.88093 | 129.35788 | 37935 ft | 450 kts | 235° |
| 2026-04-26 15:16 | 30.84210 | 129.30056 | 37949 ft | 451 kts | 235° |
| 2026-04-26 15:16 | 30.80323 | 129.24326 | 37935 ft | 451 kts | 235° |
| 2026-04-26 15:17 | 30.77071 | 129.19519 | 37940 ft | 450 kts | 237° |
| 2026-04-26 15:17 | 30.72654 | 129.12791 | 37946 ft | 451 kts | 236° |
| 2026-04-26 15:18 | 30.68891 | 129.07060 | 37944 ft | 451 kts | 236° |
| 2026-04-26 15:18 | 30.65029 | 129.01190 | 37947 ft | 452 kts | 236° |
| 2026-04-26 15:19 | 30.61203 | 128.95388 | 37948 ft | 453 kts | 236° |
| 2026-04-26 15:19 | 30.57369 | 128.89578 | 37946 ft | 453 kts | 236° |
| 2026-04-26 15:20 | 30.53563 | 128.83823 | 37944 ft | 453 kts | 236° |
| 2026-04-26 15:20 | 30.49725 | 128.78023 | 37950 ft | 453 kts | 236° |
| 2026-04-26 15:21 | 30.45875 | 128.72218 | 37942 ft | 454 kts | 236° |
| 2026-04-26 15:21 | 30.42046 | 128.66451 | 37947 ft | 454 kts | 236° |
| 2026-04-26 15:22 | 30.38190 | 128.60651 | 37946 ft | 454 kts | 236° |
| 2026-04-26 15:22 | 30.34327 | 128.54849 | 37947 ft | 455 kts | 236° |
| 2026-04-26 15:23 | 30.30456 | 128.49046 | 37949 ft | 455 kts | 236° |
| 2026-04-26 15:23 | 30.26584 | 128.43247 | 37952 ft | 455 kts | 236° |
| 2026-04-26 15:24 | 30.22713 | 128.37459 | 37951 ft | 455 kts | 236° |
| 2026-04-26 15:24 | 30.18829 | 128.31660 | 37950 ft | 455 kts | 236° |
| 2026-04-26 15:25 | 30.15601 | 128.26847 | 37958 ft | 456 kts | 236° |
| 2026-04-26 15:25 | 30.11057 | 128.20081 | 37965 ft | 456 kts | 237° |
| 2026-04-26 15:26 | 30.07162 | 128.14291 | 37973 ft | 457 kts | 237° |
| 2026-04-26 15:26 | 30.03252 | 128.08486 | 37965 ft | 458 kts | 237° |
| 2026-04-26 15:27 | 29.99341 | 128.02687 | 37962 ft | 458 kts | 237° |
| 2026-04-26 15:27 | 29.95481 | 127.96975 | 37967 ft | 459 kts | 237° |
| 2026-04-26 15:28 | 29.91514 | 127.91110 | 37969 ft | 460 kts | 237° |
| 2026-04-26 15:28 | 29.87572 | 127.85293 | 37971 ft | 460 kts | 237° |
| 2026-04-26 15:29 | 29.83456 | 127.79631 | 37974 ft | 461 kts | 234° |
| 2026-04-26 15:30 | 29.75113 | 127.68419 | 37979 ft | 462 kts | 234° |
| 2026-04-26 15:30 | 29.70926 | 127.62805 | 37977 ft | 462 kts | 234° |
| 2026-04-26 15:31 | 29.64633 | 127.54390 | 37985 ft | 462 kts | 235° |
| 2026-04-26 15:32 | 29.59758 | 127.47881 | 37986 ft | 462 kts | 235° |
| 2026-04-26 15:32 | 29.55133 | 127.41283 | 37997 ft | 461 kts | 237° |
| 2026-04-26 15:33 | 29.51073 | 127.35429 | 37997 ft | 461 kts | 237° |
| 2026-04-26 15:33 | 29.47091 | 127.29658 | 37990 ft | 460 kts | 237° |
| 2026-04-26 15:34 | 29.43102 | 127.23907 | 37997 ft | 460 kts | 238° |
| 2026-04-26 15:34 | 29.39115 | 127.18154 | 37993 ft | 461 kts | 238° |
| 2026-04-26 15:35 | 29.35148 | 127.12445 | 38000 ft | 460 kts | 238° |
| 2026-04-26 15:35 | 29.31157 | 127.06706 | 37998 ft | 460 kts | 238° |
| 2026-04-26 15:36 | 29.27159 | 127.00966 | 38002 ft | 460 kts | 238° |
| 2026-04-26 15:36 | 29.23157 | 126.95228 | 38006 ft | 460 kts | 238° |
| 2026-04-26 15:37 | 29.19166 | 126.89515 | 38006 ft | 460 kts | 238° |
| 2026-04-26 15:37 | 29.15170 | 126.83801 | 38002 ft | 460 kts | 238° |
| 2026-04-26 15:38 | 29.11174 | 126.78095 | 38005 ft | 461 kts | 239° |
| 2026-04-26 15:38 | 29.07162 | 126.72376 | 38006 ft | 461 kts | 239° |
| 2026-04-26 15:39 | 29.03147 | 126.66660 | 38008 ft | 460 kts | 239° |
| 2026-04-26 15:39 | 28.99807 | 126.61909 | 38010 ft | 461 kts | 239° |
| 2026-04-26 15:40 | 28.95070 | 126.55315 | 38010 ft | 463 kts | 238° |
| 2026-04-26 15:40 | 28.90903 | 126.49688 | 38015 ft | 463 kts | 238° |
| 2026-04-26 15:41 | 28.86741 | 126.44073 | 38010 ft | 463 kts | 238° |
| 2026-04-26 15:41 | 28.82570 | 126.38459 | 38020 ft | 463 kts | 238° |
| 2026-04-26 15:42 | 28.78409 | 126.32860 | 38022 ft | 463 kts | 238° |
| 2026-04-26 15:42 | 28.74244 | 126.27268 | 38010 ft | 462 kts | 238° |
| 2026-04-26 15:43 | 28.70128 | 126.21746 | 38019 ft | 461 kts | 238° |
| 2026-04-26 15:44 | 28.63891 | 126.13395 | 38016 ft | 461 kts | 239° |
| 2026-04-26 15:44 | 28.57840 | 126.04873 | 38017 ft | 460 kts | 240° |
| 2026-04-26 15:45 | 28.51827 | 125.96379 | 38013 ft | 459 kts | 240° |
| 2026-04-26 15:46 | 28.45826 | 125.87948 | 38019 ft | 459 kts | 240° |
| 2026-04-26 15:46 | 28.42473 | 125.83237 | 38020 ft | 459 kts | 240° |
| 2026-04-26 15:47 | 28.35799 | 125.73881 | 38018 ft | 457 kts | 240° |
| 2026-04-26 15:48 | 28.31802 | 125.68288 | 38019 ft | 457 kts | 240° |
| 2026-04-26 15:48 | 28.27794 | 125.62686 | 38026 ft | 456 kts | 240° |
| 2026-04-26 15:49 | 28.23794 | 125.57103 | 38024 ft | 455 kts | 240° |
| 2026-04-26 15:49 | 28.19805 | 125.51541 | 38039 ft | 454 kts | 240° |
| 2026-04-26 15:50 | 28.15812 | 125.45982 | 38025 ft | 454 kts | 240° |
| 2026-04-26 15:50 | 28.11850 | 125.40474 | 38024 ft | 453 kts | 240° |
| 2026-04-26 15:51 | 28.07870 | 125.34947 | 38024 ft | 452 kts | 240° |
| 2026-04-26 15:51 | 28.03892 | 125.29431 | 38033 ft | 451 kts | 240° |
| 2026-04-26 15:52 | 27.99922 | 125.23932 | 38026 ft | 450 kts | 240° |
| 2026-04-26 15:52 | 27.95962 | 125.18454 | 38026 ft | 450 kts | 240° |
| 2026-04-26 15:53 | 27.91998 | 125.12978 | 38029 ft | 450 kts | 240° |
| 2026-04-26 15:53 | 27.88039 | 125.07516 | 38034 ft | 449 kts | 240° |
| 2026-04-26 15:54 | 27.84129 | 125.02128 | 38030 ft | 449 kts | 240° |
| 2026-04-26 15:54 | 27.80101 | 124.96584 | 38030 ft | 450 kts | 240° |
| 2026-04-26 15:55 | 27.76127 | 124.91124 | 38031 ft | 449 kts | 240° |
| 2026-04-26 15:55 | 27.72170 | 124.85692 | 38028 ft | 448 kts | 240° |
| 2026-04-26 15:56 | 27.68224 | 124.80282 | 38030 ft | 448 kts | 240° |
| 2026-04-26 15:56 | 27.64268 | 124.74865 | 38030 ft | 447 kts | 240° |
| 2026-04-26 15:57 | 27.60309 | 124.69449 | 38033 ft | 447 kts | 240° |
| 2026-04-26 15:57 | 27.56392 | 124.64087 | 38029 ft | 447 kts | 239° |
| 2026-04-26 15:58 | 27.52440 | 124.58690 | 38032 ft | 447 kts | 239° |
| 2026-04-26 15:58 | 27.48472 | 124.53275 | 38035 ft | 447 kts | 239° |
| 2026-04-26 15:59 | 27.44511 | 124.47876 | 38029 ft | 447 kts | 239° |
| 2026-04-26 15:59 | 27.40550 | 124.42484 | 38031 ft | 448 kts | 239° |
| 2026-04-26 16:00 | 27.36575 | 124.37081 | 38036 ft | 447 kts | 239° |
| 2026-04-26 16:00 | 27.32608 | 124.31695 | 38044 ft | 447 kts | 239° |
| 2026-04-26 16:01 | 27.28629 | 124.26299 | 38051 ft | 447 kts | 239° |
| 2026-04-26 16:01 | 27.24651 | 124.20911 | 38046 ft | 447 kts | 239° |
| 2026-04-26 16:02 | 27.20679 | 124.15538 | 38041 ft | 446 kts | 239° |
| 2026-04-26 16:02 | 27.16707 | 124.10170 | 38034 ft | 447 kts | 239° |
| 2026-04-26 16:03 | 27.12776 | 124.04865 | 38061 ft | 436 kts | 239° |
| 2026-04-26 16:03 | 27.08873 | 123.99600 | 38038 ft | 446 kts | 239° |
| 2026-04-26 16:04 | 27.04847 | 123.94256 | 38046 ft | 449 kts | 238° |
| 2026-04-26 16:04 | 27.00819 | 123.88908 | 38052 ft | 448 kts | 238° |
| 2026-04-26 16:05 | 26.96791 | 123.83558 | 38050 ft | 449 kts | 238° |
| 2026-04-26 16:05 | 26.92758 | 123.78217 | 38047 ft | 449 kts | 238° |
| 2026-04-26 16:06 | 26.88721 | 123.72871 | 38054 ft | 449 kts | 237° |
| 2026-04-26 16:06 | 26.84692 | 123.67548 | 38040 ft | 448 kts | 237° |
| 2026-04-26 16:07 | 26.80661 | 123.62224 | 38033 ft | 447 kts | 237° |
| 2026-04-26 16:07 | 26.76629 | 123.56907 | 38041 ft | 448 kts | 237° |
| 2026-04-26 16:08 | 26.72596 | 123.51594 | 38040 ft | 447 kts | 237° |
| 2026-04-26 16:08 | 26.68596 | 123.46333 | 38036 ft | 447 kts | 237° |
| 2026-04-26 16:09 | 26.64577 | 123.41051 | 38038 ft | 446 kts | 236° |
| 2026-04-26 16:09 | 26.60553 | 123.35772 | 38040 ft | 446 kts | 236° |
| 2026-04-26 16:10 | 26.56537 | 123.30508 | 38032 ft | 446 kts | 236° |
| 2026-04-26 16:10 | 26.52507 | 123.25233 | 38032 ft | 445 kts | 236° |
| 2026-04-26 16:11 | 26.48484 | 123.19973 | 38032 ft | 445 kts | 236° |
| 2026-04-26 16:11 | 26.44467 | 123.14726 | 38032 ft | 444 kts | 236° |
| 2026-04-26 16:12 | 26.40458 | 123.09497 | 38033 ft | 443 kts | 236° |
| 2026-04-26 16:12 | 26.35116 | 123.02538 | 38028 ft | 443 kts | 235° |
| 2026-04-26 16:13 | 26.31117 | 122.97337 | 38027 ft | 442 kts | 235° |
| 2026-04-26 16:13 | 26.27203 | 122.92254 | 38027 ft | 442 kts | 235° |
| 2026-04-26 16:14 | 26.23194 | 122.87053 | 38024 ft | 441 kts | 234° |
| 2026-04-26 16:15 | 26.17209 | 122.79299 | 38043 ft | 440 kts | 234° |
| 2026-04-26 16:15 | 26.13214 | 122.74131 | 38030 ft | 440 kts | 234° |
| 2026-04-26 16:16 | 26.07249 | 122.66426 | 38036 ft | 439 kts | 234° |
| 2026-04-26 16:16 | 26.03254 | 122.61272 | 38028 ft | 439 kts | 234° |
| 2026-04-26 16:17 | 25.99263 | 122.56130 | 38035 ft | 439 kts | 234° |
| 2026-04-26 16:17 | 25.95266 | 122.50987 | 38017 ft | 439 kts | 234° |
| 2026-04-26 16:18 | 25.89293 | 122.43307 | 38011 ft | 438 kts | 233° |
| 2026-04-26 16:19 | 25.83316 | 122.35634 | 38011 ft | 437 kts | 233° |
| 2026-04-26 16:20 | 25.77412 | 122.28066 | 38014 ft | 438 kts | 233° |
| 2026-04-26 16:20 | 25.71429 | 122.20412 | 38006 ft | 438 kts | 233° |
| 2026-04-26 16:21 | 25.67469 | 122.15352 | 38013 ft | 437 kts | 233° |
| 2026-04-26 16:21 | 25.63429 | 122.10196 | 38013 ft | 437 kts | 233° |
| 2026-04-26 16:22 | 25.59464 | 122.05136 | 38012 ft | 437 kts | 233° |
| 2026-04-26 16:22 | 25.55489 | 122.00043 | 38014 ft | 437 kts | 233° |
| 2026-04-26 16:23 | 25.51485 | 121.94971 | 38007 ft | 437 kts | 233° |
| 2026-04-26 16:23 | 25.47492 | 121.89892 | 38001 ft | 438 kts | 233° |
| 2026-04-26 16:24 | 25.43477 | 121.84805 | 37999 ft | 437 kts | 233° |
| 2026-04-26 16:24 | 25.39480 | 121.79739 | 37995 ft | 437 kts | 232° |
| 2026-04-26 16:25 | 25.35486 | 121.74685 | 37991 ft | 437 kts | 232° |
| 2026-04-26 16:25 | 25.31476 | 121.69616 | 37996 ft | 438 kts | 232° |
| 2026-04-26 16:26 | 25.27472 | 121.64560 | 37988 ft | 437 kts | 232° |
| 2026-04-26 16:26 | 25.23459 | 121.59499 | 37998 ft | 437 kts | 232° |
| 2026-04-26 16:27 | 25.19452 | 121.54451 | 38000 ft | 436 kts | 232° |
| 2026-04-26 16:27 | 25.15495 | 121.49423 | 38003 ft | 437 kts | 233° |
| 2026-04-26 16:28 | 25.11580 | 121.44280 | 38001 ft | 438 kts | 233° |
| 2026-04-26 16:28 | 25.07608 | 121.39165 | 37999 ft | 438 kts | 233° |
| 2026-04-26 16:29 | 25.03661 | 121.34039 | 37987 ft | 438 kts | 233° |
| 2026-04-26 16:29 | 24.99707 | 121.28933 | 37988 ft | 438 kts | 233° |
| 2026-04-26 16:30 | 24.95756 | 121.23826 | 37980 ft | 437 kts | 233° |
| 2026-04-26 16:30 | 24.91828 | 121.18759 | 37981 ft | 437 kts | 233° |
| 2026-04-26 16:31 | 24.87882 | 121.13671 | 37976 ft | 437 kts | 233° |
| 2026-04-26 16:31 | 24.84021 | 121.08700 | 37976 ft | 437 kts | 233° |
| 2026-04-26 16:32 | 24.80669 | 121.04386 | 37988 ft | 437 kts | 233° |
| 2026-04-26 16:32 | 24.76069 | 120.98468 | 37986 ft | 437 kts | 233° |
| 2026-04-26 16:33 | 24.74089 | 120.95925 | 37858 ft | 437 kts | 233° |
| 2026-04-26 16:33 | 24.72110 | 120.93383 | 37985 ft | 439 kts | 233° |
| 2026-04-26 16:33 | 24.68086 | 120.88215 | 37988 ft | 448 kts | 233° |
| 2026-04-26 16:34 | 24.64089 | 120.83097 | 37992 ft | 450 kts | 233° |
| 2026-04-26 16:34 | 24.59935 | 120.77775 | 37995 ft | 450 kts | 233° |
| 2026-04-26 16:35 | 24.55840 | 120.72557 | 37988 ft | 451 kts | 230° |
| 2026-04-26 16:35 | 24.51483 | 120.67583 | 38004 ft | 453 kts | 230° |
| 2026-04-26 16:36 | 24.47114 | 120.62589 | 38002 ft | 453 kts | 230° |
| 2026-04-26 16:36 | 24.42813 | 120.57689 | 37997 ft | 453 kts | 230° |
| 2026-04-26 16:37 | 24.38384 | 120.52643 | 37997 ft | 454 kts | 230° |
| 2026-04-26 16:37 | 24.33999 | 120.47655 | 37996 ft | 454 kts | 230° |
| 2026-04-26 16:38 | 24.29618 | 120.42675 | 38002 ft | 455 kts | 230° |
| 2026-04-26 16:38 | 24.25221 | 120.37683 | 37994 ft | 454 kts | 230° |
| 2026-04-26 16:39 | 24.20827 | 120.32695 | 37993 ft | 454 kts | 230° |
| 2026-04-26 16:39 | 24.16444 | 120.27720 | 37989 ft | 454 kts | 230° |
| 2026-04-26 16:40 | 24.12040 | 120.22740 | 37984 ft | 455 kts | 230° |
| 2026-04-26 16:40 | 24.07663 | 120.17788 | 37978 ft | 455 kts | 230° |
| 2026-04-26 16:41 | 24.03260 | 120.12815 | 37976 ft | 455 kts | 230° |
| 2026-04-26 16:41 | 23.98835 | 120.07822 | 37990 ft | 456 kts | 230° |
| 2026-04-26 16:42 | 23.94418 | 120.02845 | 37987 ft | 456 kts | 230° |
| 2026-04-26 16:42 | 23.89999 | 119.97870 | 37981 ft | 456 kts | 230° |
| 2026-04-26 16:43 | 23.85571 | 119.92891 | 37985 ft | 457 kts | 230° |
| 2026-04-26 16:43 | 23.81139 | 119.87912 | 37984 ft | 456 kts | 230° |
| 2026-04-26 16:44 | 23.76738 | 119.82974 | 37993 ft | 457 kts | 229° |
| 2026-04-26 16:44 | 23.72303 | 119.78002 | 37995 ft | 456 kts | 229° |
| 2026-04-26 16:45 | 23.67869 | 119.73038 | 37999 ft | 456 kts | 229° |
| 2026-04-26 16:45 | 23.63438 | 119.68080 | 38003 ft | 457 kts | 229° |
| 2026-04-26 16:46 | 23.59156 | 119.62964 | 38037 ft | 453 kts | 238° |
| 2026-04-26 16:46 | 23.55773 | 119.57209 | 38014 ft | 454 kts | 240° |
| 2026-04-26 16:47 | 23.52383 | 119.51362 | 38013 ft | 454 kts | 240° |
| 2026-04-26 16:47 | 23.49007 | 119.45539 | 38012 ft | 455 kts | 240° |
| 2026-04-26 16:48 | 23.45639 | 119.39740 | 38011 ft | 456 kts | 240° |
| 2026-04-26 16:48 | 23.42251 | 119.33911 | 38007 ft | 456 kts | 240° |
| 2026-04-26 16:49 | 23.38845 | 119.28060 | 38000 ft | 456 kts | 240° |
| 2026-04-26 16:49 | 23.35457 | 119.22245 | 37996 ft | 456 kts | 240° |
| 2026-04-26 16:50 | 23.32053 | 119.16412 | 37995 ft | 456 kts | 240° |
| 2026-04-26 16:50 | 23.28634 | 119.10556 | 37998 ft | 457 kts | 239° |
| 2026-04-26 16:51 | 23.25245 | 119.04760 | 37998 ft | 457 kts | 239° |
| 2026-04-26 16:51 | 23.21829 | 118.98925 | 37994 ft | 456 kts | 239° |
| 2026-04-26 16:52 | 23.19549 | 118.95034 | 37990 ft | 457 kts | 239° |
| 2026-04-26 16:52 | 23.14999 | 118.87278 | 37992 ft | 457 kts | 239° |
| 2026-04-26 16:53 | 23.11587 | 118.81468 | 37988 ft | 457 kts | 239° |
| 2026-04-26 16:53 | 23.08149 | 118.75621 | 37989 ft | 458 kts | 239° |
| 2026-04-26 16:54 | 23.04715 | 118.69788 | 37991 ft | 459 kts | 239° |
| 2026-04-26 16:54 | 23.01295 | 118.63986 | 37987 ft | 459 kts | 239° |
| 2026-04-26 16:55 | 22.97854 | 118.58154 | 37985 ft | 459 kts | 239° |
| 2026-04-26 16:55 | 22.94407 | 118.52321 | 37986 ft | 459 kts | 239° |
| 2026-04-26 16:56 | 22.89770 | 118.44536 | 37985 ft | 459 kts | 239° |
| 2026-04-26 16:57 | 22.86307 | 118.38715 | 37984 ft | 459 kts | 239° |
| 2026-04-26 16:57 | 22.81121 | 118.30021 | 37988 ft | 459 kts | 239° |
| 2026-04-26 16:58 | 22.78241 | 118.25197 | 37987 ft | 458 kts | 239° |
| 2026-04-26 16:59 | 22.72446 | 118.15506 | 37989 ft | 459 kts | 239° |
| 2026-04-26 17:00 | 22.65516 | 118.03940 | 37989 ft | 457 kts | 239° |
| 2026-04-26 17:00 | 22.60334 | 117.95309 | 37986 ft | 457 kts | 239° |
| 2026-04-26 17:01 | 22.56922 | 117.89563 | 37993 ft | 457 kts | 240° |
| 2026-04-26 17:01 | 22.53464 | 117.83739 | 37988 ft | 457 kts | 240° |
| 2026-04-26 17:02 | 22.50021 | 117.77958 | 37985 ft | 456 kts | 240° |
| 2026-04-26 17:02 | 22.46585 | 117.72187 | 37994 ft | 456 kts | 240° |
| 2026-04-26 17:03 | 22.44863 | 117.69302 | 38116 ft | 454 kts | 241° |
| 2026-04-26 17:03 | 22.43175 | 117.66482 | 38007 ft | 437 kts | 241° |
| 2026-04-26 17:03 | 22.41562 | 117.63780 | 37993 ft | 420 kts | 242° |
| 2026-04-26 17:03 | 22.39998 | 117.61153 | 37989 ft | 411 kts | 242° |
| 2026-04-26 17:04 | 22.36878 | 117.55920 | 37988 ft | 420 kts | 242° |
| 2026-04-26 17:04 | 22.34372 | 117.50270 | 38010 ft | 420 kts | 255° |
| 2026-04-26 17:05 | 22.33264 | 117.44092 | 38011 ft | 420 kts | 267° |
| 2026-04-26 17:05 | 22.33120 | 117.37789 | 38003 ft | 419 kts | 268° |
| 2026-04-26 17:06 | 22.33006 | 117.31484 | 38001 ft | 420 kts | 269° |
| 2026-04-26 17:06 | 22.32891 | 117.25180 | 38002 ft | 419 kts | 268° |
| 2026-04-26 17:07 | 22.32773 | 117.18975 | 37995 ft | 421 kts | 269° |
| 2026-04-26 17:07 | 22.32651 | 117.12552 | 37997 ft | 420 kts | 269° |
| 2026-04-26 17:08 | 22.32528 | 117.06306 | 37990 ft | 421 kts | 269° |
| 2026-04-26 17:08 | 22.32401 | 116.99909 | 37990 ft | 421 kts | 269° |
| 2026-04-26 17:09 | 22.32294 | 116.94635 | 37992 ft | 422 kts | 269° |
| 2026-04-26 17:09 | 22.32141 | 116.87279 | 37989 ft | 422 kts | 269° |
| 2026-04-26 17:10 | 22.32007 | 116.80929 | 37995 ft | 423 kts | 269° |
| 2026-04-26 17:10 | 22.31872 | 116.74656 | 37981 ft | 422 kts | 269° |
| 2026-04-26 17:11 | 22.31733 | 116.68307 | 37982 ft | 422 kts | 269° |
| 2026-04-26 17:11 | 22.31590 | 116.61891 | 37979 ft | 422 kts | 269° |
| 2026-04-26 17:12 | 22.31374 | 116.52397 | 37984 ft | 424 kts | 269° |
| 2026-04-26 17:13 | 22.31152 | 116.42895 | 37979 ft | 424 kts | 269° |
| 2026-04-26 17:14 | 22.30922 | 116.33287 | 37976 ft | 425 kts | 269° |
| 2026-04-26 17:14 | 22.30687 | 116.23716 | 37987 ft | 425 kts | 269° |
| 2026-04-26 17:15 | 22.30446 | 116.14134 | 37983 ft | 426 kts | 269° |
| 2026-04-26 17:16 | 22.30282 | 116.07729 | 37981 ft | 426 kts | 269° |
| 2026-04-26 17:16 | 22.30117 | 116.01372 | 37980 ft | 426 kts | 269° |
| 2026-04-26 17:17 | 22.29948 | 115.94960 | 37971 ft | 427 kts | 269° |
| 2026-04-26 17:17 | 22.29776 | 115.88558 | 37985 ft | 426 kts | 269° |
| 2026-04-26 17:18 | 22.29604 | 115.82236 | 37143 ft | 418 kts | 269° |
| 2026-04-26 17:18 | 22.29520 | 115.79074 | 36161 ft | 423 kts | 269° |
| 2026-04-26 17:18 | 22.29439 | 115.75923 | 35218 ft | 428 kts | 269° |
| 2026-04-26 17:18 | 22.29353 | 115.72653 | 34234 ft | 433 kts | 269° |
| 2026-04-26 17:19 | 22.29176 | 115.66062 | 31920 ft | 445 kts | 269° |
| 2026-04-26 17:19 | 22.29085 | 115.62698 | 30703 ft | 452 kts | 269° |
| 2026-04-26 17:19 | 22.28991 | 115.59262 | 29622 ft | 456 kts | 269° |
| 2026-04-26 17:20 | 22.28897 | 115.55868 | 28751 ft | 451 kts | 269° |
| 2026-04-26 17:20 | 22.28838 | 115.53744 | 28208 ft | 449 kts | 269° |
| 2026-04-26 17:20 | 22.28709 | 115.49131 | 27049 ft | 445 kts | 269° |
| 2026-04-26 17:20 | 22.28616 | 115.45804 | 26232 ft | 442 kts | 269° |
| 2026-04-26 17:21 | 22.28522 | 115.42501 | 25423 ft | 438 kts | 269° |
| 2026-04-26 17:21 | 22.28428 | 115.39217 | 24611 ft | 435 kts | 269° |
| 2026-04-26 17:21 | 22.28337 | 115.36024 | 23823 ft | 433 kts | 269° |
| 2026-04-26 17:21 | 22.28255 | 115.33206 | 23087 ft | 430 kts | 268° |
| 2026-04-26 17:22 | 22.28156 | 115.29895 | 22284 ft | 424 kts | 268° |
| 2026-04-26 17:22 | 22.28059 | 115.26768 | 21520 ft | 418 kts | 268° |
| 2026-04-26 17:22 | 22.27962 | 115.23656 | 20756 ft | 413 kts | 269° |
| 2026-04-26 17:22 | 22.27868 | 115.20562 | 20007 ft | 409 kts | 269° |
| 2026-04-26 17:23 | 22.27774 | 115.17516 | 19273 ft | 405 kts | 269° |
| 2026-04-26 17:23 | 22.27679 | 115.14490 | 18544 ft | 401 kts | 269° |
| 2026-04-26 17:23 | 22.27585 | 115.11493 | 17773 ft | 398 kts | 269° |
| 2026-04-26 17:23 | 22.27491 | 115.08518 | 17058 ft | 395 kts | 269° |
| 2026-04-26 17:24 | 22.27397 | 115.05550 | 16370 ft | 395 kts | 269° |
| 2026-04-26 17:24 | 22.27302 | 115.02591 | 15659 ft | 393 kts | 269° |
| 2026-04-26 17:24 | 22.27213 | 114.99655 | 14952 ft | 390 kts | 267° |
| 2026-04-26 17:24 | 22.27116 | 114.96728 | 14255 ft | 391 kts | 266° |
| 2026-04-26 17:25 | 22.27017 | 114.93803 | 13524 ft | 387 kts | 266° |
| 2026-04-26 17:25 | 22.26922 | 114.90886 | 12838 ft | 381 kts | 267° |
| 2026-04-26 17:25 | 22.26831 | 114.88064 | 12166 ft | 381 kts | 267° |
| 2026-04-26 17:25 | 22.26739 | 114.85284 | 11606 ft | 374 kts | 267° |
| 2026-04-26 17:26 | 22.26647 | 114.82488 | 11405 ft | 354 kts | 267° |
| 2026-04-26 17:26 | 22.26487 | 114.79923 | 11274 ft | 332 kts | 258° |
| 2026-04-26 17:26 | 22.25688 | 114.77639 | 11017 ft | 324 kts | 237° |
| 2026-04-26 17:26 | 22.24325 | 114.75888 | 11000 ft | 308 kts | 223° |
| 2026-04-26 17:27 | 22.22742 | 114.74231 | 11003 ft | 327 kts | 223° |
| 2026-04-26 17:27 | 22.21079 | 114.72531 | 11008 ft | 329 kts | 223° |
| 2026-04-26 17:27 | 22.19407 | 114.70827 | 11015 ft | 331 kts | 223° |
| 2026-04-26 17:27 | 22.17744 | 114.69117 | 11009 ft | 332 kts | 223° |
| 2026-04-26 17:28 | 22.16063 | 114.67385 | 10842 ft | 331 kts | 223° |
| 2026-04-26 17:28 | 22.14428 | 114.65704 | 10601 ft | 317 kts | 223° |
| 2026-04-26 17:28 | 22.14026 | 114.65292 | 10553 ft | 313 kts | 223° |
| 2026-04-26 17:28 | 22.12482 | 114.63709 | 10332 ft | 300 kts | 223° |
| 2026-04-26 17:29 | 22.11002 | 114.62190 | 10130 ft | 288 kts | 223° |
| 2026-04-26 17:29 | 22.10531 | 114.61707 | 10065 ft | 285 kts | 222° |
| 2026-04-26 17:29 | 22.08621 | 114.59748 | 9813 ft | 282 kts | 222° |
| 2026-04-26 17:29 | 22.06727 | 114.57807 | 9568 ft | 280 kts | 223° |
| 2026-04-26 17:30 | 22.05331 | 114.56377 | 9362 ft | 279 kts | 222° |
| 2026-04-26 17:30 | 22.03927 | 114.54939 | 9193 ft | 278 kts | 223° |
| 2026-04-26 17:30 | 22.02547 | 114.53475 | 9004 ft | 277 kts | 230° |
| 2026-04-26 17:30 | 22.01686 | 114.51643 | 8984 ft | 276 kts | 248° |
| 2026-04-26 17:31 | 22.00938 | 114.49729 | 8988 ft | 278 kts | 246° |
| 2026-04-26 17:31 | 22.00184 | 114.47800 | 8988 ft | 279 kts | 246° |
| 2026-04-26 17:31 | 21.99447 | 114.45865 | 8995 ft | 279 kts | 247° |
| 2026-04-26 17:31 | 21.98713 | 114.43932 | 9002 ft | 279 kts | 246° |
| 2026-04-26 17:32 | 21.98007 | 114.42087 | 9054 ft | 252 kts | 246° |
| 2026-04-26 17:32 | 21.97362 | 114.40402 | 9056 ft | 238 kts | 246° |
| 2026-04-26 17:32 | 21.96743 | 114.38791 | 9051 ft | 234 kts | 246° |
| 2026-04-26 17:32 | 21.96116 | 114.37159 | 9046 ft | 232 kts | 246° |
| 2026-04-26 17:33 | 21.95500 | 114.35552 | 9041 ft | 231 kts | 246° |
| 2026-04-26 17:33 | 21.94887 | 114.33952 | 9036 ft | 231 kts | 246° |
| 2026-04-26 17:33 | 21.94274 | 114.32352 | 9038 ft | 231 kts | 246° |
| 2026-04-26 17:34 | 21.93043 | 114.29146 | 9029 ft | 231 kts | 246° |
| 2026-04-26 17:34 | 21.92431 | 114.27553 | 8879 ft | 235 kts | 246° |
| 2026-04-26 17:34 | 21.91815 | 114.25951 | 8687 ft | 236 kts | 246° |
| 2026-04-26 17:34 | 21.91206 | 114.24365 | 8508 ft | 235 kts | 246° |
| 2026-04-26 17:35 | 21.90582 | 114.22744 | 8296 ft | 234 kts | 246° |
| 2026-04-26 17:35 | 21.90171 | 114.21674 | 8178 ft | 233 kts | 246° |
| 2026-04-26 17:35 | 21.89608 | 114.20046 | 7968 ft | 233 kts | 256° |
| 2026-04-26 17:35 | 21.89737 | 114.18326 | 7739 ft | 233 kts | 288° |
| 2026-04-26 17:36 | 21.90476 | 114.16777 | 7536 ft | 233 kts | 298° |
| 2026-04-26 17:36 | 21.91274 | 114.15263 | 7353 ft | 232 kts | 298° |
| 2026-04-26 17:36 | 21.92069 | 114.13744 | 7171 ft | 231 kts | 297° |
| 2026-04-26 17:36 | 21.92852 | 114.12227 | 6970 ft | 230 kts | 298° |
| 2026-04-26 17:37 | 21.93625 | 114.10727 | 6798 ft | 228 kts | 298° |
| 2026-04-26 17:37 | 21.94392 | 114.09242 | 6614 ft | 227 kts | 298° |
| 2026-04-26 17:37 | 21.95158 | 114.07761 | 6428 ft | 225 kts | 298° |
| 2026-04-26 17:38 | 21.96649 | 114.04875 | 6121 ft | 224 kts | 298° |
| 2026-04-26 17:38 | 21.97409 | 114.03403 | 5958 ft | 224 kts | 298° |
| 2026-04-26 17:38 | 21.98184 | 114.01903 | 5815 ft | 224 kts | 298° |
| 2026-04-26 17:38 | 21.98944 | 114.00428 | 5689 ft | 227 kts | 298° |
| 2026-04-26 17:39 | 21.99715 | 113.98934 | 5536 ft | 231 kts | 298° |
| 2026-04-26 17:39 | 22.00508 | 113.97395 | 5405 ft | 237 kts | 298° |
| 2026-04-26 17:39 | 22.01313 | 113.95834 | 5270 ft | 238 kts | 298° |
| 2026-04-26 17:39 | 22.02116 | 113.94276 | 5139 ft | 239 kts | 298° |
| 2026-04-26 17:40 | 22.02924 | 113.92708 | 5004 ft | 239 kts | 298° |
| 2026-04-26 17:40 | 22.03458 | 113.91674 | 4912 ft | 239 kts | 298° |
| 2026-04-26 17:40 | 22.04539 | 113.89573 | 4727 ft | 239 kts | 298° |
| 2026-04-26 17:40 | 22.05346 | 113.88008 | 4579 ft | 239 kts | 298° |
| 2026-04-26 17:41 | 22.06307 | 113.86569 | 4408 ft | 240 kts | 316° |
| 2026-04-26 17:41 | 22.07628 | 113.85439 | 4248 ft | 240 kts | 323° |
| 2026-04-26 17:41 | 22.08963 | 113.84399 | 4109 ft | 240 kts | 323° |
| 2026-04-26 17:41 | 22.10285 | 113.83273 | 3963 ft | 240 kts | 320° |
| 2026-04-26 17:42 | 22.11530 | 113.82112 | 3815 ft | 240 kts | 319° |
| 2026-04-26 17:42 | 22.12792 | 113.80936 | 3672 ft | 240 kts | 319° |
| 2026-04-26 17:42 | 22.14056 | 113.79781 | 3523 ft | 232 kts | 319° |
| 2026-04-26 17:42 | 22.15258 | 113.78687 | 3365 ft | 223 kts | 319° |
| 2026-04-26 17:43 | 22.16432 | 113.77614 | 3205 ft | 219 kts | 319° |
| 2026-04-26 17:43 | 22.17585 | 113.76558 | 3048 ft | 214 kts | 319° |
| 2026-04-26 17:43 | 22.18685 | 113.75552 | 2982 ft | 200 kts | 319° |
| 2026-04-26 17:43 | 22.19741 | 113.74586 | 2992 ft | 198 kts | 319° |
| 2026-04-26 17:44 | 22.20784 | 113.73630 | 2984 ft | 197 kts | 319° |
| 2026-04-26 17:44 | 22.21839 | 113.72664 | 2794 ft | 198 kts | 319° |
| 2026-04-26 17:44 | 22.23020 | 113.71947 | 2496 ft | 198 kts | 351° |
| 2026-04-26 17:44 | 22.24347 | 113.72181 | 2231 ft | 193 kts | 28° |
| 2026-04-26 17:45 | 22.25370 | 113.73067 | 2015 ft | 187 kts | 43° |
| 2026-04-26 17:45 | 22.26286 | 113.73929 | 1989 ft | 171 kts | 43° |
| 2026-04-26 17:45 | 22.27201 | 113.74780 | 1991 ft | 169 kts | 43° |
| 2026-04-26 17:45 | 22.28048 | 113.75639 | 1963 ft | 162 kts | 54° |
| 2026-04-26 17:46 | 22.28336 | 113.76739 | 1951 ft | 149 kts | 84° |
| 2026-04-26 17:46 | 22.28744 | 113.77756 | 1980 ft | 145 kts | 61° |
| 2026-04-26 17:46 | 22.29111 | 113.78802 | 1826 ft | 150 kts | 77° |
| 2026-04-26 17:46 | 22.29464 | 113.79853 | 1638 ft | 148 kts | 73° |
| 2026-04-26 17:47 | 22.29802 | 113.80914 | 1440 ft | 149 kts | 73° |
| 2026-04-26 17:47 | 22.30025 | 113.81611 | 1314 ft | 150 kts | 73° |
| 2026-04-26 17:47 | 22.30484 | 113.83021 | 1046 ft | 147 kts | 73° |
| 2026-04-26 17:47 | 22.30817 | 113.84060 | 849 ft | 146 kts | 72° |
| 2026-04-26 17:48 | 22.31150 | 113.85096 | 669 ft | 146 kts | 72° |
| 2026-04-26 17:48 | 22.31446 | 113.86011 | 493 ft | 145 kts | 73° |
| 2026-04-26 17:48 | 22.31777 | 113.87053 | 309 ft | 152 kts | 72° |
| 2026-04-26 17:48 | 22.32108 | 113.88080 | 112 ft | 144 kts | 72° |
| 2026-04-26 17:49 | 22.32407 | 113.89024 | 39 ft | 121 kts | 71° |
| 2026-04-26 17:49 | 22.32623 | 113.89674 | 37 ft | 72 kts | 70° |
| 2026-04-26 17:49 | 22.32774 | 113.90144 | 35 ft | 67 kts | 71° |
| 2026-04-26 17:49 | 22.32921 | 113.90582 | 35 ft | 66 kts | 69° |
| 2026-04-26 17:50 | 22.33046 | 113.90986 | 41 ft | 53 kts | 72° |
| 2026-04-26 17:50 | 22.33122 | 113.91249 | 44 ft | 20 kts | 92° |
| 2026-04-26 17:50 | 22.33049 | 113.91327 | 42 ft | 11 kts | 160° |
| 2026-04-26 17:50 | 22.33045 | 113.91329 | 42 ft | 0 kts | 160° |
| 2026-04-26 17:51 | 22.33042 | 113.91330 | 42 ft | 2 kts | 160° |
| 2026-04-26 17:51 | 22.33034 | 113.91333 | 41 ft | 4 kts | 153° |